VJC2586 VVDB-VVPQ
Flight info
| Callsign | VJC2586 |
|---|---|
| Flight time | N/A |
| Altitude | 35000 |
| Route | DBN B468 LADON B214 BQ W21 HUVAN DCT NOBAI DCT PHUTA DCT VANUC/K0867F340 DCT BIVIM DCT VUKHU/K0863F350 DCT DALAN DCT KAMSU/K0865F340 W2 DONGI/K0861F360 W2 BIGBO/K0861F350 DCT BACMA DCT TAMKY DCT QUNGI DCT KUMUN DCT VIMUT/K0861F360 DCT QUNHN DCT KAMGO/K0863F350 DCT TUNER DCT NIHOA DCT NG/K0861F360 DCT SUIDA W2 HAPHA DCT RINKU DCT RUTIT DCT ASEBO DCT TULTU DCT NIXIV DCT CONDA DCT ADBOP/K0856F370 DCT TUNPO W8 TIHAN |
| Aircraft | A321/M-SDE3FGHIRWY/LB1 |
Departure
| Time | N/A |
|---|---|
| Airport | Dien Bien Phu Airport (VVDB) |
Arrival
| Time | 2026-04-15 10:19 |
|---|---|
| Airport | Phú Quốc International Airport (VVPQ) |
| Time | Latitude | Longitude | Altitude | Speed | Heading |
|---|---|---|---|---|---|
| 2026-04-15 08:37 | 12.21338 | 109.19380 | 34816 ft | 463 kts | 192° |
| 2026-04-15 08:38 | 12.15321 | 109.17064 | 34830 ft | 462 kts | 204° |
| 2026-04-15 08:38 | 12.09458 | 109.14339 | 34828 ft | 463 kts | 204° |
| 2026-04-15 08:39 | 12.03529 | 109.11761 | 34827 ft | 463 kts | 202° |
| 2026-04-15 08:39 | 11.97570 | 109.09210 | 34827 ft | 464 kts | 203° |
| 2026-04-15 08:40 | 11.91631 | 109.06605 | 34827 ft | 464 kts | 204° |
| 2026-04-15 08:40 | 11.85687 | 109.04009 | 34827 ft | 465 kts | 203° |
| 2026-04-15 08:41 | 11.80010 | 109.00897 | 34817 ft | 464 kts | 218° |
| 2026-04-15 08:41 | 11.76183 | 108.97079 | 34829 ft | 464 kts | 227° |
| 2026-04-15 08:42 | 11.71860 | 108.92174 | 34828 ft | 464 kts | 228° |
| 2026-04-15 08:42 | 11.66713 | 108.86602 | 34826 ft | 463 kts | 226° |
| 2026-04-15 08:43 | 11.62964 | 108.82635 | 34827 ft | 463 kts | 226° |
| 2026-04-15 08:43 | 11.58547 | 108.77848 | 34826 ft | 463 kts | 227° |
| 2026-04-15 08:44 | 11.53960 | 108.73241 | 34817 ft | 464 kts | 217° |
| 2026-04-15 08:44 | 11.51210 | 108.71514 | 34815 ft | 465 kts | 206° |
| 2026-04-15 08:44 | 11.48166 | 108.70394 | 34824 ft | 465 kts | 196° |
| 2026-04-15 08:45 | 11.41878 | 108.68822 | 34829 ft | 466 kts | 193° |
| 2026-04-15 08:45 | 11.35627 | 108.67242 | 34827 ft | 466 kts | 195° |
| 2026-04-15 08:46 | 11.29370 | 108.65502 | 34826 ft | 466 kts | 195° |
| 2026-04-15 08:46 | 11.23097 | 108.63817 | 34825 ft | 466 kts | 195° |
| 2026-04-15 08:47 | 11.16821 | 108.62170 | 34825 ft | 466 kts | 195° |
| 2026-04-15 08:47 | 11.10534 | 108.60485 | 34825 ft | 466 kts | 195° |
| 2026-04-15 08:48 | 11.04287 | 108.58809 | 34825 ft | 466 kts | 195° |
| 2026-04-15 08:48 | 10.98002 | 108.57141 | 34825 ft | 467 kts | 195° |
| 2026-04-15 08:49 | 10.91742 | 108.55360 | 34817 ft | 466 kts | 201° |
| 2026-04-15 08:49 | 10.88827 | 108.53922 | 34815 ft | 465 kts | 212° |
| 2026-04-15 08:49 | 10.86273 | 108.51923 | 34814 ft | 464 kts | 225° |
| 2026-04-15 08:49 | 10.84205 | 108.49408 | 34816 ft | 463 kts | 237° |
| 2026-04-15 08:50 | 10.82626 | 108.46566 | 34830 ft | 463 kts | 243° |
| 2026-04-15 08:50 | 10.79726 | 108.40718 | 34828 ft | 462 kts | 244° |
| 2026-04-15 08:51 | 10.76712 | 108.34949 | 34827 ft | 462 kts | 242° |
| 2026-04-15 08:51 | 10.73620 | 108.29214 | 34827 ft | 462 kts | 242° |
| 2026-04-15 08:52 | 10.70591 | 108.23441 | 34827 ft | 462 kts | 243° |
| 2026-04-15 08:52 | 10.67589 | 108.17708 | 34827 ft | 462 kts | 242° |
| 2026-04-15 08:53 | 10.64535 | 108.11948 | 34827 ft | 462 kts | 242° |
| 2026-04-15 08:53 | 10.61496 | 108.06196 | 34827 ft | 462 kts | 243° |
| 2026-04-15 08:54 | 10.58462 | 108.00439 | 34827 ft | 462 kts | 243° |
| 2026-04-15 08:54 | 10.55419 | 107.94694 | 34827 ft | 462 kts | 243° |
| 2026-04-15 08:55 | 10.52380 | 107.88944 | 34827 ft | 462 kts | 243° |
| 2026-04-15 08:55 | 10.49359 | 107.83230 | 34827 ft | 462 kts | 243° |
| 2026-04-15 08:56 | 10.46319 | 107.77477 | 34826 ft | 462 kts | 243° |
| 2026-04-15 08:56 | 10.44160 | 107.71358 | 34828 ft | 460 kts | 256° |
| 2026-04-15 08:57 | 10.42597 | 107.65049 | 34827 ft | 460 kts | 257° |
| 2026-04-15 08:57 | 10.41001 | 107.58756 | 34827 ft | 460 kts | 256° |
| 2026-04-15 08:58 | 10.39320 | 107.52523 | 34827 ft | 460 kts | 255° |
| 2026-04-15 08:58 | 10.36854 | 107.43090 | 34827 ft | 460 kts | 256° |
| 2026-04-15 08:59 | 10.35211 | 107.36810 | 34827 ft | 460 kts | 256° |
| 2026-04-15 08:59 | 10.32934 | 107.30806 | 34816 ft | 461 kts | 239° |
| 2026-04-15 09:00 | 10.30995 | 107.28209 | 34816 ft | 463 kts | 227° |
| 2026-04-15 09:00 | 10.28536 | 107.26096 | 34818 ft | 465 kts | 215° |
| 2026-04-15 09:00 | 10.22941 | 107.22782 | 34831 ft | 466 kts | 210° |
| 2026-04-15 09:01 | 10.17327 | 107.19495 | 34828 ft | 465 kts | 212° |
| 2026-04-15 09:01 | 10.11791 | 107.16080 | 34827 ft | 465 kts | 212° |
| 2026-04-15 09:02 | 10.06241 | 107.12697 | 34827 ft | 465 kts | 212° |
| 2026-04-15 09:02 | 10.00661 | 107.09353 | 34827 ft | 465 kts | 212° |
| 2026-04-15 09:03 | 9.95094 | 107.05988 | 34827 ft | 466 kts | 212° |
| 2026-04-15 09:03 | 9.89528 | 107.02618 | 34827 ft | 466 kts | 212° |
| 2026-04-15 09:04 | 9.83968 | 106.99263 | 34827 ft | 465 kts | 212° |
| 2026-04-15 09:04 | 9.78401 | 106.95895 | 34827 ft | 465 kts | 212° |
| 2026-04-15 09:05 | 9.72829 | 106.92536 | 34827 ft | 465 kts | 212° |
| 2026-04-15 09:05 | 9.67425 | 106.89015 | 34820 ft | 464 kts | 220° |
| 2026-04-15 09:06 | 9.62590 | 106.84683 | 34827 ft | 463 kts | 224° |
| 2026-04-15 09:06 | 9.57864 | 106.80251 | 34826 ft | 463 kts | 224° |
| 2026-04-15 09:07 | 9.53063 | 106.75902 | 34826 ft | 463 kts | 223° |
| 2026-04-15 09:07 | 9.48566 | 106.71277 | 34817 ft | 460 kts | 236° |
| 2026-04-15 09:08 | 9.46982 | 106.68480 | 34816 ft | 458 kts | 248° |
| 2026-04-15 09:08 | 9.46025 | 106.65407 | 34819 ft | 456 kts | 260° |
| 2026-04-15 09:08 | 9.45728 | 106.62217 | 34822 ft | 455 kts | 271° |
| 2026-04-15 09:08 | 9.45761 | 106.61302 | 34823 ft | 455 kts | 275° |
| 2026-04-15 09:09 | 9.45930 | 106.59773 | 34824 ft | 455 kts | 279° |
| 2026-04-15 09:09 | 9.46728 | 106.56675 | 34824 ft | 454 kts | 290° |
| 2026-04-15 09:09 | 9.48078 | 106.53837 | 34823 ft | 454 kts | 301° |
| 2026-04-15 09:10 | 9.52106 | 106.48905 | 34833 ft | 455 kts | 313° |
| 2026-04-15 09:10 | 9.56429 | 106.44235 | 34829 ft | 454 kts | 312° |
| 2026-04-15 09:11 | 9.60644 | 106.39476 | 34827 ft | 454 kts | 311° |
| 2026-04-15 09:11 | 9.64839 | 106.34691 | 34827 ft | 454 kts | 311° |
| 2026-04-15 09:12 | 9.69070 | 106.29956 | 34827 ft | 454 kts | 311° |
| 2026-04-15 09:12 | 9.73312 | 106.25191 | 34827 ft | 454 kts | 311° |
| 2026-04-15 09:13 | 9.77533 | 106.20424 | 34827 ft | 454 kts | 311° |
| 2026-04-15 09:13 | 9.81757 | 106.15664 | 34827 ft | 454 kts | 311° |
| 2026-04-15 09:14 | 9.85982 | 106.10904 | 34827 ft | 454 kts | 311° |
| 2026-04-15 09:14 | 9.90199 | 106.06140 | 34827 ft | 454 kts | 311° |
| 2026-04-15 09:15 | 9.94425 | 106.01375 | 34827 ft | 454 kts | 311° |
| 2026-04-15 09:15 | 9.98622 | 105.96638 | 34827 ft | 454 kts | 311° |
| 2026-04-15 09:16 | 10.02840 | 105.91874 | 34827 ft | 454 kts | 311° |
| 2026-04-15 09:16 | 10.07064 | 105.87097 | 34827 ft | 454 kts | 311° |
| 2026-04-15 09:17 | 10.11294 | 105.82320 | 34826 ft | 454 kts | 311° |
| 2026-04-15 09:17 | 10.15510 | 105.77548 | 34826 ft | 454 kts | 311° |
| 2026-04-15 09:18 | 10.19731 | 105.72775 | 34826 ft | 454 kts | 311° |
| 2026-04-15 09:18 | 10.21838 | 105.70393 | 34826 ft | 454 kts | 311° |
| 2026-04-15 09:19 | 10.23975 | 105.67976 | 34827 ft | 455 kts | 311° |
| 2026-04-15 09:20 | 10.24707 | 105.67147 | 34827 ft | 455 kts | 311° |
| 2026-04-15 09:20 | 10.28924 | 105.62363 | 34827 ft | 454 kts | 311° |
| 2026-04-15 09:21 | 10.33142 | 105.57586 | 34826 ft | 454 kts | 311° |
| 2026-04-15 09:21 | 10.37365 | 105.52808 | 34826 ft | 454 kts | 311° |
| 2026-04-15 09:22 | 10.41585 | 105.48021 | 34826 ft | 454 kts | 311° |
| 2026-04-15 09:22 | 10.45811 | 105.43225 | 34825 ft | 455 kts | 311° |
| 2026-04-15 09:23 | 10.50041 | 105.38427 | 34825 ft | 456 kts | 311° |
| 2026-04-15 09:23 | 10.54267 | 105.33630 | 34824 ft | 456 kts | 311° |
| 2026-04-15 09:24 | 10.58497 | 105.28822 | 34823 ft | 456 kts | 311° |
| 2026-04-15 09:24 | 10.62728 | 105.24013 | 34822 ft | 457 kts | 311° |
| 2026-04-15 09:25 | 10.66965 | 105.19198 | 34820 ft | 457 kts | 311° |
| 2026-04-15 09:25 | 10.71174 | 105.14414 | 34819 ft | 457 kts | 311° |
| 2026-04-15 09:26 | 10.75407 | 105.09592 | 34817 ft | 457 kts | 311° |
| 2026-04-15 09:26 | 10.79644 | 105.04770 | 34816 ft | 457 kts | 311° |
| 2026-04-15 09:27 | 10.83193 | 105.00729 | 34814 ft | 457 kts | 311° |
| 2026-04-15 09:27 | 10.87402 | 104.95931 | 34811 ft | 457 kts | 311° |
| 2026-04-15 09:28 | 10.91636 | 104.91108 | 34809 ft | 457 kts | 311° |
| 2026-04-15 09:28 | 10.95461 | 104.85961 | 34497 ft | 456 kts | 297° |
| 2026-04-15 09:29 | 10.96637 | 104.82964 | 34245 ft | 455 kts | 285° |
| 2026-04-15 09:29 | 10.97153 | 104.79794 | 33998 ft | 455 kts | 273° |
| 2026-04-15 09:29 | 10.97170 | 104.79435 | 33970 ft | 455 kts | 272° |
| 2026-04-15 09:30 | 10.97178 | 104.79106 | 33945 ft | 456 kts | 270° |
| 2026-04-15 09:30 | 10.96894 | 104.75862 | 33696 ft | 456 kts | 259° |
| 2026-04-15 09:30 | 10.96003 | 104.72806 | 33452 ft | 458 kts | 248° |
| 2026-04-15 09:31 | 10.94524 | 104.69939 | 33205 ft | 460 kts | 237° |
| 2026-04-15 09:31 | 10.94203 | 104.69460 | 33161 ft | 460 kts | 235° |
| 2026-04-15 09:31 | 10.91931 | 104.66855 | 32894 ft | 462 kts | 223° |
| 2026-04-15 09:32 | 10.89332 | 104.64918 | 32647 ft | 465 kts | 211° |
| 2026-04-15 09:32 | 10.86394 | 104.63552 | 32400 ft | 467 kts | 199° |
| 2026-04-15 09:32 | 10.83208 | 104.62814 | 32151 ft | 469 kts | 187° |
| 2026-04-15 09:32 | 10.79938 | 104.62744 | 31902 ft | 471 kts | 175° |
| 2026-04-15 09:33 | 10.76716 | 104.63379 | 31655 ft | 473 kts | 163° |
| 2026-04-15 09:33 | 10.73635 | 104.64583 | 31418 ft | 475 kts | 159° |
| 2026-04-15 09:33 | 10.70473 | 104.65546 | 31162 ft | 475 kts | 169° |
| 2026-04-15 09:33 | 10.67184 | 104.65811 | 30909 ft | 475 kts | 182° |
| 2026-04-15 09:34 | 10.63921 | 104.65302 | 30665 ft | 475 kts | 194° |
| 2026-04-15 09:34 | 10.60736 | 104.64406 | 30428 ft | 475 kts | 197° |
| 2026-04-15 09:34 | 10.57568 | 104.63451 | 30182 ft | 476 kts | 197° |
| 2026-04-15 09:34 | 10.54380 | 104.62521 | 29935 ft | 477 kts | 195° |
| 2026-04-15 09:35 | 10.51180 | 104.61655 | 29689 ft | 477 kts | 194° |
| 2026-04-15 09:35 | 10.47995 | 104.60839 | 29445 ft | 478 kts | 194° |
| 2026-04-15 09:35 | 10.44724 | 104.60007 | 29195 ft | 478 kts | 194° |
| 2026-04-15 09:35 | 10.41539 | 104.59179 | 28951 ft | 479 kts | 194° |
| 2026-04-15 09:36 | 10.38313 | 104.58315 | 28704 ft | 480 kts | 195° |
| 2026-04-15 09:36 | 10.35090 | 104.57439 | 28458 ft | 480 kts | 195° |
| 2026-04-15 09:36 | 10.31852 | 104.56564 | 28211 ft | 481 kts | 194° |
| 2026-04-15 09:36 | 10.28618 | 104.55703 | 27964 ft | 482 kts | 194° |
| 2026-04-15 09:37 | 10.25372 | 104.54841 | 27717 ft | 482 kts | 194° |
| 2026-04-15 09:37 | 10.22119 | 104.53986 | 27470 ft | 482 kts | 194° |
| 2026-04-15 09:37 | 10.18872 | 104.53133 | 27223 ft | 483 kts | 194° |
| 2026-04-15 09:37 | 10.15626 | 104.52271 | 26976 ft | 483 kts | 194° |
| 2026-04-15 09:38 | 10.12373 | 104.51401 | 26729 ft | 484 kts | 194° |
| 2026-04-15 09:38 | 10.09119 | 104.50526 | 26481 ft | 483 kts | 194° |
| 2026-04-15 09:38 | 10.05863 | 104.49658 | 26234 ft | 484 kts | 194° |
| 2026-04-15 09:38 | 10.02600 | 104.48802 | 25987 ft | 484 kts | 194° |
| 2026-04-15 09:39 | 9.99333 | 104.47942 | 25739 ft | 484 kts | 194° |
| 2026-04-15 09:39 | 9.96071 | 104.47079 | 25492 ft | 485 kts | 194° |
| 2026-04-15 09:39 | 9.92804 | 104.46213 | 25244 ft | 485 kts | 194° |
| 2026-04-15 09:39 | 9.89542 | 104.45347 | 24998 ft | 485 kts | 194° |
| 2026-04-15 09:40 | 9.86268 | 104.44468 | 24750 ft | 486 kts | 194° |
| 2026-04-15 09:40 | 9.82998 | 104.43594 | 24502 ft | 486 kts | 194° |
| 2026-04-15 09:40 | 9.79726 | 104.42729 | 24255 ft | 486 kts | 194° |
| 2026-04-15 09:40 | 9.76446 | 104.41871 | 24007 ft | 486 kts | 194° |
| 2026-04-15 09:41 | 9.73208 | 104.41017 | 23763 ft | 487 kts | 194° |
| 2026-04-15 09:41 | 9.69931 | 104.40147 | 23515 ft | 487 kts | 194° |
| 2026-04-15 09:41 | 9.66659 | 104.39270 | 23266 ft | 486 kts | 194° |
| 2026-04-15 09:41 | 9.63394 | 104.38396 | 23018 ft | 484 kts | 194° |
| 2026-04-15 09:42 | 9.60140 | 104.37532 | 22770 ft | 482 kts | 194° |
| 2026-04-15 09:42 | 9.56890 | 104.36670 | 22521 ft | 481 kts | 194° |
| 2026-04-15 09:42 | 9.53648 | 104.35811 | 22273 ft | 480 kts | 194° |
| 2026-04-15 09:42 | 9.50420 | 104.34959 | 22024 ft | 478 kts | 194° |
| 2026-04-15 09:43 | 9.47216 | 104.34111 | 21777 ft | 476 kts | 194° |
| 2026-04-15 09:43 | 9.44012 | 104.33263 | 21529 ft | 475 kts | 194° |
| 2026-04-15 09:43 | 9.40823 | 104.32413 | 21281 ft | 473 kts | 194° |
| 2026-04-15 09:43 | 9.37647 | 104.31563 | 21033 ft | 472 kts | 194° |
| 2026-04-15 09:44 | 9.34473 | 104.30718 | 20784 ft | 470 kts | 194° |
| 2026-04-15 09:44 | 9.31318 | 104.29883 | 20536 ft | 469 kts | 194° |
| 2026-04-15 09:44 | 9.28161 | 104.29049 | 20287 ft | 467 kts | 194° |
| 2026-04-15 09:44 | 9.25026 | 104.28220 | 20040 ft | 465 kts | 194° |
| 2026-04-15 09:45 | 9.21897 | 104.27381 | 19792 ft | 464 kts | 194° |
| 2026-04-15 09:45 | 9.18782 | 104.26537 | 19543 ft | 463 kts | 194° |
| 2026-04-15 09:45 | 9.15681 | 104.25702 | 19295 ft | 461 kts | 194° |
| 2026-04-15 09:45 | 9.12578 | 104.24881 | 19047 ft | 460 kts | 194° |
| 2026-04-15 09:46 | 9.09489 | 104.24080 | 18799 ft | 458 kts | 194° |
| 2026-04-15 09:46 | 9.06404 | 104.23271 | 18550 ft | 457 kts | 194° |
| 2026-04-15 09:46 | 9.03331 | 104.22456 | 18301 ft | 455 kts | 194° |
| 2026-04-15 09:46 | 9.00282 | 104.21636 | 18053 ft | 454 kts | 194° |
| 2026-04-15 09:47 | 8.97232 | 104.20819 | 17804 ft | 452 kts | 194° |
| 2026-04-15 09:47 | 8.94194 | 104.20012 | 17555 ft | 450 kts | 194° |
| 2026-04-15 09:47 | 8.91163 | 104.19212 | 17307 ft | 449 kts | 194° |
| 2026-04-15 09:47 | 8.88147 | 104.18417 | 17058 ft | 447 kts | 194° |
| 2026-04-15 09:48 | 8.85146 | 104.17620 | 16810 ft | 446 kts | 194° |
| 2026-04-15 09:48 | 8.82148 | 104.16819 | 16561 ft | 444 kts | 194° |
| 2026-04-15 09:48 | 8.79168 | 104.16026 | 16312 ft | 442 kts | 194° |
| 2026-04-15 09:48 | 8.76194 | 104.15243 | 16063 ft | 441 kts | 194° |
| 2026-04-15 09:49 | 8.73238 | 104.14463 | 15815 ft | 439 kts | 194° |
| 2026-04-15 09:49 | 8.70285 | 104.13678 | 15565 ft | 438 kts | 194° |
| 2026-04-15 09:49 | 8.67346 | 104.12899 | 15316 ft | 436 kts | 194° |
| 2026-04-15 09:49 | 8.64394 | 104.12238 | 15064 ft | 434 kts | 188° |
| 2026-04-15 09:50 | 8.61391 | 104.12032 | 14812 ft | 432 kts | 178° |
| 2026-04-15 09:50 | 8.58450 | 104.12374 | 14565 ft | 429 kts | 167° |
| 2026-04-15 09:50 | 8.55610 | 104.13259 | 14316 ft | 427 kts | 157° |
| 2026-04-15 09:50 | 8.52949 | 104.14648 | 14064 ft | 424 kts | 147° |
| 2026-04-15 09:51 | 8.50615 | 104.16458 | 13815 ft | 422 kts | 137° |
| 2026-04-15 09:51 | 8.48660 | 104.18611 | 13569 ft | 420 kts | 127° |
| 2026-04-15 09:51 | 8.47083 | 104.21088 | 13319 ft | 418 kts | 117° |
| 2026-04-15 09:51 | 8.45940 | 104.23784 | 13069 ft | 416 kts | 108° |
| 2026-04-15 09:52 | 8.45266 | 104.26620 | 12819 ft | 415 kts | 98° |
| 2026-04-15 09:52 | 8.45081 | 104.29520 | 12569 ft | 413 kts | 89° |
| 2026-04-15 09:52 | 8.45386 | 104.32397 | 12320 ft | 412 kts | 79° |
| 2026-04-15 09:52 | 8.46161 | 104.35176 | 12070 ft | 410 kts | 70° |
| 2026-04-15 09:53 | 8.47376 | 104.37776 | 11826 ft | 409 kts | 60° |
| 2026-04-15 09:53 | 8.49004 | 104.40138 | 11578 ft | 410 kts | 51° |
| 2026-04-15 09:53 | 8.50993 | 104.42184 | 11327 ft | 408 kts | 41° |
| 2026-04-15 09:53 | 8.53290 | 104.43861 | 11162 ft | 408 kts | 32° |
| 2026-04-15 09:54 | 8.55794 | 104.45122 | 11036 ft | 408 kts | 22° |
| 2026-04-15 09:54 | 8.58503 | 104.45963 | 10912 ft | 408 kts | 13° |
| 2026-04-15 09:54 | 8.61315 | 104.46336 | 10787 ft | 408 kts | 3° |
| 2026-04-15 09:54 | 8.64145 | 104.46227 | 10662 ft | 408 kts | 354° |
| 2026-04-15 09:55 | 8.66925 | 104.45640 | 10537 ft | 408 kts | 344° |
| 2026-04-15 09:55 | 8.69566 | 104.44598 | 10415 ft | 408 kts | 335° |
| 2026-04-15 09:55 | 8.72094 | 104.43281 | 10293 ft | 408 kts | 333° |
| 2026-04-15 09:55 | 8.74595 | 104.41915 | 10169 ft | 408 kts | 332° |
| 2026-04-15 09:56 | 8.77094 | 104.40558 | 10046 ft | 407 kts | 333° |
| 2026-04-15 09:56 | 8.79601 | 104.39237 | 9922 ft | 406 kts | 333° |
| 2026-04-15 09:56 | 8.84640 | 104.36656 | 9679 ft | 405 kts | 334° |
| 2026-04-15 09:57 | 8.87147 | 104.35365 | 9556 ft | 404 kts | 334° |
| 2026-04-15 09:57 | 8.89652 | 104.34061 | 9433 ft | 404 kts | 333° |
| 2026-04-15 09:57 | 8.92140 | 104.32760 | 9309 ft | 403 kts | 333° |
| 2026-04-15 09:57 | 8.94631 | 104.31459 | 9184 ft | 403 kts | 334° |
| 2026-04-15 09:58 | 8.97126 | 104.30161 | 9059 ft | 402 kts | 334° |
| 2026-04-15 09:58 | 8.99605 | 104.28910 | 8935 ft | 401 kts | 336° |
| 2026-04-15 09:58 | 9.02215 | 104.27935 | 8808 ft | 399 kts | 345° |
| 2026-04-15 09:58 | 9.04931 | 104.27397 | 8682 ft | 397 kts | 355° |
| 2026-04-15 09:59 | 9.07691 | 104.27353 | 8557 ft | 395 kts | 5° |
| 2026-04-15 09:59 | 9.10395 | 104.27786 | 8433 ft | 394 kts | 14° |
| 2026-04-15 09:59 | 9.13014 | 104.28589 | 8310 ft | 392 kts | 19° |
| 2026-04-15 09:59 | 9.15601 | 104.29480 | 8191 ft | 392 kts | 20° |
| 2026-04-15 10:00 | 9.18176 | 104.30369 | 8066 ft | 391 kts | 19° |
| 2026-04-15 10:00 | 9.20759 | 104.31229 | 7942 ft | 390 kts | 19° |
| 2026-04-15 10:00 | 9.23345 | 104.32057 | 7818 ft | 390 kts | 18° |
| 2026-04-15 10:00 | 9.25934 | 104.32875 | 7695 ft | 389 kts | 18° |
| 2026-04-15 10:01 | 9.28516 | 104.33698 | 7570 ft | 388 kts | 18° |
| 2026-04-15 10:01 | 9.31090 | 104.34532 | 7448 ft | 388 kts | 19° |
| 2026-04-15 10:01 | 9.33653 | 104.35369 | 7325 ft | 387 kts | 19° |
| 2026-04-15 10:01 | 9.36222 | 104.36206 | 7203 ft | 387 kts | 19° |
| 2026-04-15 10:02 | 9.38778 | 104.37036 | 7078 ft | 386 kts | 18° |
| 2026-04-15 10:02 | 9.41337 | 104.37864 | 6953 ft | 385 kts | 18° |
| 2026-04-15 10:02 | 9.43889 | 104.38690 | 6828 ft | 385 kts | 18° |
| 2026-04-15 10:02 | 9.46438 | 104.39516 | 6706 ft | 384 kts | 19° |
| 2026-04-15 10:03 | 9.48984 | 104.40342 | 6581 ft | 383 kts | 19° |
| 2026-04-15 10:03 | 9.51524 | 104.41166 | 6455 ft | 383 kts | 19° |
| 2026-04-15 10:03 | 9.54025 | 104.41979 | 6335 ft | 382 kts | 18° |
| 2026-04-15 10:03 | 9.56561 | 104.42802 | 6211 ft | 382 kts | 18° |
| 2026-04-15 10:04 | 9.59087 | 104.43621 | 6087 ft | 381 kts | 18° |
| 2026-04-15 10:04 | 9.61612 | 104.44439 | 5966 ft | 381 kts | 18° |
| 2026-04-15 10:04 | 9.64135 | 104.45257 | 5842 ft | 380 kts | 18° |
| 2026-04-15 10:04 | 9.66652 | 104.46075 | 5718 ft | 380 kts | 18° |
| 2026-04-15 10:05 | 9.69168 | 104.46893 | 5595 ft | 379 kts | 18° |
| 2026-04-15 10:05 | 9.71683 | 104.47711 | 5471 ft | 379 kts | 18° |
| 2026-04-15 10:05 | 9.74188 | 104.48525 | 5351 ft | 379 kts | 18° |
| 2026-04-15 10:05 | 9.76700 | 104.49340 | 5227 ft | 378 kts | 18° |
| 2026-04-15 10:06 | 9.79204 | 104.50155 | 5102 ft | 378 kts | 18° |
| 2026-04-15 10:06 | 9.81705 | 104.50967 | 5005 ft | 377 kts | 18° |
| 2026-04-15 10:06 | 9.84208 | 104.51781 | 4999 ft | 377 kts | 18° |
| 2026-04-15 10:06 | 9.86715 | 104.52596 | 4957 ft | 377 kts | 18° |
| 2026-04-15 10:07 | 9.89211 | 104.53406 | 4836 ft | 377 kts | 18° |
| 2026-04-15 10:07 | 9.91705 | 104.54218 | 4724 ft | 375 kts | 18° |
| 2026-04-15 10:07 | 9.94156 | 104.55014 | 4609 ft | 361 kts | 18° |
| 2026-04-15 10:07 | 9.96455 | 104.55761 | 4489 ft | 341 kts | 18° |
| 2026-04-15 10:08 | 9.98654 | 104.56476 | 4369 ft | 322 kts | 18° |
| 2026-04-15 10:08 | 10.00726 | 104.57151 | 4246 ft | 304 kts | 18° |
| 2026-04-15 10:08 | 10.02737 | 104.57587 | 4110 ft | 289 kts | 2° |
| 2026-04-15 10:08 | 10.04650 | 104.57258 | 3972 ft | 274 kts | 336° |
| 2026-04-15 10:09 | 10.06193 | 104.56124 | 3847 ft | 277 kts | 310° |
| 2026-04-15 10:09 | 10.07135 | 104.54445 | 3719 ft | 274 kts | 286° |
| 2026-04-15 10:09 | 10.07515 | 104.52561 | 3603 ft | 273 kts | 277° |
| 2026-04-15 10:09 | 10.07779 | 104.50657 | 3479 ft | 272 kts | 277° |
| 2026-04-15 10:10 | 10.08079 | 104.48767 | 3353 ft | 271 kts | 279° |
| 2026-04-15 10:10 | 10.08447 | 104.46890 | 3228 ft | 271 kts | 280° |
| 2026-04-15 10:10 | 10.08825 | 104.45024 | 3104 ft | 270 kts | 279° |
| 2026-04-15 10:10 | 10.09065 | 104.43787 | 3021 ft | 270 kts | 279° |
| 2026-04-15 10:11 | 10.09410 | 104.41910 | 2895 ft | 269 kts | 278° |
| 2026-04-15 10:11 | 10.09748 | 104.40046 | 2770 ft | 268 kts | 279° |
| 2026-04-15 10:11 | 10.10094 | 104.38189 | 2645 ft | 268 kts | 279° |
| 2026-04-15 10:11 | 10.10444 | 104.36332 | 2520 ft | 267 kts | 279° |
| 2026-04-15 10:12 | 10.10835 | 104.34488 | 2394 ft | 267 kts | 282° |
| 2026-04-15 10:12 | 10.11302 | 104.32665 | 2269 ft | 267 kts | 285° |
| 2026-04-15 10:12 | 10.11974 | 104.30900 | 2145 ft | 267 kts | 292° |
| 2026-04-15 10:12 | 10.12743 | 104.29188 | 2026 ft | 267 kts | 294° |
| 2026-04-15 10:13 | 10.13517 | 104.27534 | 2000 ft | 249 kts | 294° |
| 2026-04-15 10:13 | 10.14178 | 104.25986 | 1994 ft | 230 kts | 285° |
| 2026-04-15 10:13 | 10.14494 | 104.24465 | 1995 ft | 212 kts | 275° |
| 2026-04-15 10:13 | 10.14659 | 104.23023 | 2001 ft | 201 kts | 273° |
| 2026-04-15 10:14 | 10.14777 | 104.21680 | 2007 ft | 182 kts | 272° |
| 2026-04-15 10:14 | 10.14886 | 104.20466 | 2000 ft | 165 kts | 273° |
| 2026-04-15 10:14 | 10.15000 | 104.19358 | 2001 ft | 156 kts | 273° |
| 2026-04-15 10:14 | 10.15111 | 104.18265 | 2006 ft | 156 kts | 272° |
| 2026-04-15 10:15 | 10.15218 | 104.17159 | 2006 ft | 156 kts | 272° |
| 2026-04-15 10:15 | 10.15324 | 104.16079 | 2006 ft | 156 kts | 273° |
| 2026-04-15 10:15 | 10.15433 | 104.14986 | 2007 ft | 156 kts | 273° |
| 2026-04-15 10:15 | 10.15541 | 104.13895 | 2034 ft | 156 kts | 272° |
| 2026-04-15 10:16 | 10.15649 | 104.12800 | 2018 ft | 156 kts | 272° |
| 2026-04-15 10:16 | 10.15757 | 104.11709 | 2014 ft | 155 kts | 272° |
| 2026-04-15 10:16 | 10.15864 | 104.10635 | 1931 ft | 148 kts | 272° |
| 2026-04-15 10:16 | 10.15964 | 104.09624 | 1770 ft | 142 kts | 272° |
| 2026-04-15 10:17 | 10.16062 | 104.08630 | 1585 ft | 141 kts | 272° |
| 2026-04-15 10:17 | 10.16160 | 104.07638 | 1399 ft | 140 kts | 271° |
| 2026-04-15 10:17 | 10.16257 | 104.06663 | 1215 ft | 138 kts | 271° |
| 2026-04-15 10:17 | 10.16352 | 104.05693 | 1031 ft | 138 kts | 271° |
| 2026-04-15 10:18 | 10.16448 | 104.04724 | 848 ft | 138 kts | 271° |
| 2026-04-15 10:18 | 10.16544 | 104.03760 | 665 ft | 137 kts | 271° |
| 2026-04-15 10:18 | 10.16637 | 104.02795 | 494 ft | 137 kts | 271° |
| 2026-04-15 10:18 | 10.16731 | 104.01830 | 323 ft | 138 kts | 272° |
| 2026-04-15 10:19 | 10.16852 | 104.00871 | 108 ft | 136 kts | 274° |
| 2026-04-15 10:19 | 10.16918 | 104.00014 | 38 ft | 92 kts | 275° |
| 2026-04-15 10:19 | 10.16950 | 103.99619 | 38 ft | 12 kts | 275° |
| 2026-04-15 10:19 | 10.16951 | 103.99613 | 38 ft | 1 kts | 275° |
| 2026-04-15 10:20 | 10.16952 | 103.99604 | 38 ft | 2 kts | 275° |
| 2026-04-15 10:20 | 10.16953 | 103.99583 | 38 ft | 4 kts | 275° |
| 2026-04-15 10:20 | 10.16956 | 103.99552 | 38 ft | 5 kts | 275° |
| 2026-04-15 10:20 | 10.16960 | 103.99510 | 38 ft | 7 kts | 278° |
| 2026-04-15 10:21 | 10.16968 | 103.99457 | 38 ft | 8 kts | 278° |
| 2026-04-15 10:21 | 10.16977 | 103.99395 | 38 ft | 10 kts | 278° |
| 2026-04-15 10:21 | 10.16982 | 103.99341 | 38 ft | 4 kts | 259° |
| 2026-04-15 10:21 | 10.16968 | 103.99317 | 38 ft | 4 kts | 219° |
| 2026-04-15 10:22 | 10.16943 | 103.99308 | 38 ft | 4 kts | 193° |
| 2026-04-15 10:22 | 10.16910 | 103.99301 | 38 ft | 5 kts | 189° |
| 2026-04-15 10:22 | 10.16877 | 103.99298 | 38 ft | 5 kts | 185° |
| 2026-04-15 10:22 | 10.16850 | 103.99295 | 38 ft | 2 kts | 184° |
| 2026-04-15 10:23 | 10.16838 | 103.99301 | 38 ft | 3 kts | 152° |
| 2026-04-15 10:23 | 10.16823 | 103.99311 | 38 ft | 2 kts | 120° |
| 2026-04-15 10:23 | 10.16817 | 103.99331 | 38 ft | 4 kts | 96° |
| 2026-04-15 10:23 | 10.16814 | 103.99363 | 38 ft | 5 kts | 96° |
| 2026-04-15 10:24 | 10.16809 | 103.99406 | 38 ft | 7 kts | 96° |
| 2026-04-15 10:24 | 10.16804 | 103.99459 | 38 ft | 8 kts | 96° |
| 2026-04-15 10:24 | 10.16798 | 103.99524 | 38 ft | 10 kts | 96° |
| 2026-04-15 10:24 | 10.16784 | 103.99549 | 38 ft | 3 kts | 158° |
| 2026-04-15 10:25 | 10.16758 | 103.99553 | 38 ft | 4 kts | 182° |
| 2026-04-15 10:25 | 10.16722 | 103.99551 | 38 ft | 6 kts | 182° |
| 2026-04-15 10:25 | 10.16676 | 103.99547 | 38 ft | 7 kts | 188° |
| 2026-04-15 10:25 | 10.16621 | 103.99541 | 38 ft | 9 kts | 185° |
| 2026-04-15 10:26 | 10.16573 | 103.99536 | 38 ft | 6 kts | 185° |
| 2026-04-15 10:26 | 10.16539 | 103.99558 | 38 ft | 7 kts | 104° |
| 2026-04-15 10:26 | 10.16534 | 103.99611 | 38 ft | 8 kts | 95° |
| 2026-04-15 10:26 | 10.16529 | 103.99673 | 38 ft | 6 kts | 95° |
| 2026-04-15 10:27 | 10.16526 | 103.99712 | 38 ft | 6 kts | 94° |
| 2026-04-15 10:27 | 10.16504 | 103.99747 | 38 ft | 7 kts | 167° |
| 2026-04-15 10:27 | 10.16485 | 103.99744 | 38 ft | 0 kts | 200° |
| 2026-04-15 10:27 | 10.16478 | 103.99742 | 38 ft | 2 kts | 201° |
| 2026-04-15 10:28 | 10.16462 | 103.99736 | 38 ft | 3 kts | 198° |
| 2026-04-15 10:28 | 10.16438 | 103.99728 | 38 ft | 1 kts | 198° |
| 2026-04-15 10:28 | 10.16435 | 103.99728 | 38 ft | 1 kts | 188° |
| 2026-04-15 10:28 | 10.16429 | 103.99728 | 38 ft | 1 kts | 174° |
| 2026-04-15 10:29 | 10.16425 | 103.99729 | 38 ft | 1 kts | 173° |
| 2026-04-15 10:29 | 10.16416 | 103.99730 | 38 ft | 0 kts | 173° |
| 2026-04-15 10:29 | 10.16411 | 103.99731 | 38 ft | 1 kts | 176° |
| 2026-04-15 10:29 | 10.16408 | 103.99731 | 38 ft | 0 kts | 182° |